WXM80 ListenWXM80 Stop

You find our weather info also at:

UK Metoffice

WeatherCloud

Weather Underground

Northeastern Weather Network

AWEKAS

Citizen Weather Observer Program (CWOP)

HAMweather, WeatherForYou, PWS Weather


Weather Underground History page Text

Daily Summary for August 22, 2016 Units:  English    Metric   Both
« Previous Day
Next Day »
Daily Weekly Monthly Yearly Custom
  High: Low: Average:
Temperature: 84.0 °F 67.1 °F 74.7 °F
Dew Point: 74.1 °F 53.2 °F 63.9 °F
Humidity: 96 % 46 % 72 %
Wind Speed: 9.6 mph 0.0 mph 3 mph
Wind Gust: 15.0 mph - -
Wind:- - SW
Pressure: 30.18 in 29.75 in -
Precipitation: 0.37 in    
Historical Graphs
 
 
Tabular Data for August 22, 2016
Time Temperature Dew Point Pressure Wind Wind Speed Wind Gust Humidity Rainfall Rate (Hourly)
00:04 76.0 °F 74.1 °F 29.75 in WSW 2.6 mph 3.0 mph 94 % 0.00 in
00:14 75.6 °F 73.1 °F 29.75 in SW 3.0 mph 8.1 mph 92 % 0.00 in
00:19 75.3 °F 72.8 °F 29.76 in West 5.6 mph 8.0 mph 92 % 0.00 in
00:25 75.0 °F 72.5 °F 29.76 in West 3.6 mph 8.1 mph 92 % 0.03 in
00:30 74.7 °F 72.2 °F 29.76 in WNW 2.0 mph 6.9 mph 92 % 0.15 in
00:40 74.2 °F 72.4 °F 29.75 in WSW 4.1 mph 6.9 mph 94 % 0.26 in
00:45 74.0 °F 72.2 °F 29.76 in WNW 0.9 mph 3.0 mph 94 % 0.28 in
00:55 73.9 °F 72.1 °F 29.76 in Calm   2.3 mph 94 % 0.29 in
01:00 73.9 °F 72.4 °F 29.76 in West 0.3 mph 3.0 mph 95 % 0.37 in
01:05 73.8 °F 72.3 °F 29.76 in West 1.5 mph 3.5 mph 95 % 0.37 in
01:11 73.7 °F 72.2 °F 29.76 in West 1.9 mph 5.8 mph 95 % 0.37 in
01:16 73.7 °F 72.2 °F 29.76 in WSW 1.0 mph 4.0 mph 95 % 0.00 in
01:21 73.6 °F 72.1 °F 29.76 in West 3.0 mph 6.0 mph 95 % 0.00 in
01:26 73.5 °F 72.0 °F 29.76 in WNW 1.0 mph 4.0 mph 95 % 0.00 in
01:31 73.5 °F 72.0 °F 29.75 in Calm   4.0 mph 95 % 0.00 in
01:36 73.4 °F 71.9 °F 29.75 in Calm   3.0 mph 95 % 0.00 in
01:41 73.3 °F 71.8 °F 29.75 in WNW 1.0 mph 6.0 mph 95 % 0.00 in
01:46 73.3 °F 71.7 °F 29.75 in Calm   4.0 mph 95 % 0.00 in
01:51 73.2 °F 71.7 °F 29.75 in West 1.0 mph 5.0 mph 95 % 0.00 in
01:56 73.1 °F 71.6 °F 29.75 in WNW 3.0 mph 8.0 mph 95 % 0.00 in
02:01 73.0 °F 71.5 °F 29.76 in West 2.0 mph 4.6 mph 95 % 0.00 in
02:06 72.9 °F 71.4 °F 29.76 in WNW 3.8 mph 5.0 mph 95 % 0.00 in
02:11 72.8 °F 71.3 °F 29.76 in West 3.2 mph 6.9 mph 95 % 0.00 in
02:16 72.7 °F 71.2 °F 29.76 in West 0.3 mph 3.0 mph 95 % 0.00 in
02:21 72.6 °F 71.1 °F 29.76 in WNW 2.3 mph 8.0 mph 95 % 0.00 in
02:26 72.5 °F 71.0 °F 29.76 in NW 1.2 mph 3.5 mph 95 % 0.00 in
02:31 72.5 °F 71.0 °F 29.76 in North 2.3 mph 6.9 mph 95 % 0.00 in
02:36 72.4 °F 70.9 °F 29.77 in West 2.3 mph 4.6 mph 95 % 0.00 in
02:41 72.3 °F 70.8 °F 29.77 in NW 2.2 mph 4.0 mph 95 % 0.00 in
02:47 72.2 °F 70.7 °F 29.78 in West 1.8 mph 4.0 mph 95 % 0.00 in
02:52 72.1 °F 70.6 °F 29.78 in WNW 1.6 mph 2.0 mph 95 % 0.00 in
02:57 72.1 °F 70.6 °F 29.78 in WNW 1.7 mph 6.9 mph 95 % 0.00 in
03:02 72.0 °F 70.5 °F 29.78 in NW 1.1 mph 3.5 mph 95 % 0.00 in
03:07 72.0 °F 70.5 °F 29.78 in WNW 1.5 mph 3.5 mph 95 % 0.00 in
03:12 72.0 °F 70.5 °F 29.78 in NNE 0.2 mph 2.3 mph 95 % 0.00 in
03:17 71.9 °F 70.4 °F 29.78 in WNW 0.8 mph 3.5 mph 95 % 0.00 in
03:22 71.9 °F 70.4 °F 29.79 in WNW 0.4 mph 3.5 mph 95 % 0.00 in
03:27 71.9 °F 70.4 °F 29.78 in NNE 0.6 mph 3.5 mph 95 % 0.00 in
03:32 71.8 °F 70.6 °F 29.79 in NE 2.0 mph 3.5 mph 96 % 0.00 in
03:38 71.7 °F 70.2 °F 29.79 in WNW 1.4 mph 1.4 mph 95 % 0.00 in
03:43 71.7 °F 70.2 °F 29.79 in WNW 0.1 mph 3.5 mph 95 % 0.00 in
03:48 71.6 °F 70.1 °F 29.79 in West 1.0 mph 4.6 mph 95 % 0.00 in
03:53 71.5 °F 70.0 °F 29.80 in WNW 0.4 mph 3.5 mph 95 % 0.00 in
03:58 71.4 °F 69.9 °F 29.80 in NW 0.6 mph 3.5 mph 95 % 0.00 in
04:03 71.3 °F 69.8 °F 29.80 in NW 0.1 mph 1.2 mph 95 % 0.00 in
04:08 71.2 °F 69.7 °F 29.79 in WNW 1.8 mph 3.5 mph 95 % 0.00 in
04:13 71.2 °F 69.7 °F 29.79 in WNW 2.7 mph 3.5 mph 95 % 0.00 in
04:18 71.2 °F 69.7 °F 29.80 in NW 2.4 mph 3.5 mph 95 % 0.00 in
04:23 71.1 °F 69.6 °F 29.80 in NW 0.9 mph 3.5 mph 95 % 0.00 in
04:28 71.0 °F 69.5 °F 29.80 in WNW 0.3 mph 5.8 mph 95 % 0.00 in
04:33 71.0 °F 69.5 °F 29.80 in West 0.6 mph 3.5 mph 95 % 0.00 in
04:39 70.9 °F 69.4 °F 29.80 in NE 0.2 mph 3.5 mph 95 % 0.00 in
04:44 70.8 °F 69.3 °F 29.80 in NW 1.4 mph 3.5 mph 95 % 0.00 in
04:49 70.6 °F 68.8 °F 29.80 in Calm   2.3 mph 94 % 0.00 in
04:54 70.5 °F 68.7 °F 29.80 in WNW 2.6 mph 6.9 mph 94 % 0.00 in
04:59 70.4 °F 68.6 °F 29.80 in WNW 2.9 mph 6.0 mph 94 % 0.00 in
05:04 70.3 °F 68.5 °F 29.80 in North 1.0 mph 3.5 mph 94 % 0.00 in
05:09 70.2 °F 68.4 °F 29.80 in West 2.5 mph 5.8 mph 94 % 0.00 in
05:14 70.1 °F 68.3 °F 29.80 in North 1.7 mph 5.8 mph 94 % 0.00 in
05:19 69.9 °F 68.1 °F 29.81 in WNW 1.2 mph 10.4 mph 94 % 0.00 in
05:24 69.9 °F 68.1 °F 29.81 in Calm   3.5 mph 94 % 0.00 in
05:30 69.8 °F 68.0 °F 29.81 in WNW 0.8 mph 5.8 mph 94 % 0.00 in
05:35 69.7 °F 67.9 °F 29.81 in WNW 1.2 mph 4.0 mph 94 % 0.00 in
05:40 69.7 °F 67.9 °F 29.81 in Calm     94 % 0.00 in
05:45 69.6 °F 67.8 °F 29.82 in NW 1.1 mph 3.5 mph 94 % 0.00 in
05:50 69.5 °F 67.7 °F 29.82 in NW 2.3 mph 4.6 mph 94 % 0.00 in
05:55 69.5 °F 67.7 °F 29.82 in WNW 3.1 mph 4.6 mph 94 % 0.00 in
06:00 69.4 °F 67.6 °F 29.83 in NNW 0.5 mph 5.0 mph 94 % 0.00 in
06:05 69.4 °F 67.9 °F 29.83 in NW 1.5 mph 5.8 mph 95 % 0.00 in
06:10 69.4 °F 67.6 °F 29.83 in West 2.2 mph 5.0 mph 94 % 0.00 in
06:15 69.3 °F 67.5 °F 29.83 in West 4.3 mph 4.6 mph 94 % 0.00 in
06:21 69.3 °F 67.5 °F 29.83 in West 1.0 mph 5.0 mph 94 % 0.00 in
06:26 69.3 °F 67.5 °F 29.84 in WNW 1.0 mph 6.0 mph 94 % 0.00 in
06:31 69.3 °F 67.8 °F 29.84 in NW 2.9 mph 8.0 mph 95 % 0.00 in
06:36 69.3 °F 67.8 °F 29.84 in NW 1.0 mph 8.0 mph 95 % 0.00 in
06:41 69.3 °F 67.8 °F 29.84 in NW 3.0 mph 8.0 mph 95 % 0.00 in
06:46 69.3 °F 67.8 °F 29.85 in WSW 2.7 mph 6.9 mph 95 % 0.00 in
06:51 69.3 °F 67.8 °F 29.85 in Calm   6.0 mph 95 % 0.00 in
06:56 69.3 °F 67.8 °F 29.85 in West 1.0 mph 5.0 mph 95 % 0.00 in
07:01 69.3 °F 67.8 °F 29.85 in Calm     95 % 0.00 in
07:06 69.2 °F 67.7 °F 29.85 in WNW 1.0 mph 5.0 mph 95 % 0.00 in
07:11 69.2 °F 67.4 °F 29.86 in WNW 2.0 mph 6.0 mph 94 % 0.00 in
07:16 69.2 °F 67.4 °F 29.86 in WNW 1.2 mph 3.5 mph 94 % 0.00 in
07:21 69.2 °F 67.4 °F 29.87 in NW 3.0 mph 6.0 mph 94 % 0.00 in
07:26 69.2 °F 67.4 °F 29.87 in NW 1.0 mph 5.0 mph 94 % 0.00 in
07:31 69.2 °F 67.4 °F 29.87 in WSW 3.8 mph 5.8 mph 94 % 0.00 in
07:36 69.2 °F 67.4 °F 29.87 in WNW 3.0 mph 8.0 mph 94 % 0.00 in
07:41 69.2 °F 67.4 °F 29.87 in Calm   2.0 mph 94 % 0.00 in
07:46 69.2 °F 67.4 °F 29.87 in Calm   3.5 mph 94 % 0.00 in
07:51 69.2 °F 67.4 °F 29.88 in NNW 2.0 mph 5.0 mph 94 % 0.00 in
07:56 69.2 °F 67.4 °F 29.88 in NNW 3.0 mph 7.0 mph 94 % 0.00 in
08:01 69.2 °F 67.4 °F 29.88 in NNE 2.0 mph 6.9 mph 94 % 0.00 in
08:06 69.2 °F 67.1 °F 29.88 in NNE 0.4 mph 4.0 mph 93 % 0.00 in
08:11 69.2 °F 67.1 °F 29.89 in NNW 2.8 mph 5.8 mph 93 % 0.00 in
08:16 69.2 °F 67.1 °F 29.88 in North 1.3 mph 4.6 mph 93 % 0.00 in
08:21 69.2 °F 67.1 °F 29.88 in West 3.3 mph 8.1 mph 93 % 0.00 in
08:26 69.3 °F 67.2 °F 29.89 in North 1.5 mph 5.8 mph 93 % 0.00 in
08:31 69.3 °F 66.9 °F 29.89 in WNW 3.9 mph 8.1 mph 92 % 0.00 in
08:36 69.3 °F 66.9 °F 29.89 in ENE 1.4 mph 6.9 mph 92 % 0.00 in
08:41 69.3 °F 66.6 °F 29.90 in WNW 3.1 mph 9.2 mph 91 % 0.00 in
08:47 69.4 °F 66.7 °F 29.90 in West 3.1 mph 4.6 mph 91 % 0.00 in
08:52 69.6 °F 66.9 °F 29.90 in NNE 0.8 mph 3.5 mph 91 % 0.00 in
08:57 69.7 °F 67.0 °F 29.90 in WNW 1.4 mph 6.9 mph 91 % 0.00 in
09:02 69.7 °F 66.6 °F 29.90 in NNW 2.4 mph 5.8 mph 90 % 0.00 in
09:07 69.8 °F 66.4 °F 29.90 in NW 2.1 mph 4.0 mph 89 % 0.00 in
09:12 69.9 °F 66.5 °F 29.91 in NNE 3.6 mph 5.0 mph 89 % 0.00 in
09:17 70.0 °F 66.6 °F 29.91 in WNW 1.0 mph 2.3 mph 89 % 0.00 in
09:22 70.2 °F 66.8 °F 29.91 in WNW 2.8 mph 4.6 mph 89 % 0.00 in
09:27 70.4 °F 67.0 °F 29.91 in NNW 1.6 mph 4.6 mph 89 % 0.00 in
09:32 70.6 °F 66.9 °F 29.91 in North 2.9 mph 3.5 mph 88 % 0.00 in
09:38 70.8 °F 67.1 °F 29.92 in North 1.5 mph 5.8 mph 88 % 0.00 in
09:43 71.1 °F 67.0 °F 29.92 in NNE 2.0 mph 5.8 mph 87 % 0.00 in
09:48 71.5 °F 67.4 °F 29.92 in NNW 1.5 mph 4.6 mph 87 % 0.00 in
09:53 72.1 °F 67.3 °F 29.92 in NW 3.5 mph 9.2 mph 85 % 0.00 in
09:58 72.8 °F 67.7 °F 29.92 in North 3.3 mph 5.8 mph 84 % 0.00 in
10:03 73.4 °F 67.2 °F 29.92 in NNW 3.2 mph 8.1 mph 81 % 0.00 in
10:08 74.0 °F 68.2 °F 29.92 in North 3.7 mph 8.1 mph 82 % 0.00 in
10:13 74.4 °F 67.1 °F 29.93 in NW 6.4 mph 10.4 mph 78 % 0.00 in
10:18 74.6 °F 67.3 °F 29.93 in NNE 3.5 mph 8.0 mph 78 % 0.00 in
10:23 74.9 °F 67.2 °F 29.93 in North 3.8 mph 7.0 mph 77 % 0.00 in
10:29 75.1 °F 66.6 °F 29.94 in NE 5.5 mph 11.5 mph 75 % 0.00 in
10:34 75.3 °F 66.4 °F 29.94 in WNW 4.3 mph 9.2 mph 74 % 0.00 in
10:39 75.6 °F 66.3 °F 29.94 in West 5.8 mph 9.2 mph 73 % 0.00 in
10:44 76.0 °F 66.7 °F 29.94 in NNW 2.4 mph 6.9 mph 73 % 0.00 in
10:49 76.5 °F 66.4 °F 29.94 in WNW 4.4 mph 6.9 mph 71 % 0.00 in
10:54 76.9 °F 66.4 °F 29.94 in NNE 2.8 mph 6.0 mph 70 % 0.00 in
10:59 77.3 °F 65.5 °F 29.94 in West 3.3 mph 6.9 mph 67 % 0.00 in
11:04 77.8 °F 66.8 °F 29.94 in WNW 2.6 mph 12.7 mph 69 % 0.00 in
11:09 78.2 °F 66.8 °F 29.94 in WNW 2.4 mph 5.8 mph 68 % 0.00 in
11:15 78.7 °F 65.9 °F 29.94 in NW 5.5 mph 6.9 mph 65 % 0.00 in
11:20 79.1 °F 66.3 °F 29.94 in NNW 5.8 mph 6.9 mph 65 % 0.00 in
11:25 79.5 °F 66.3 °F 29.94 in WNW 2.6 mph 6.9 mph 64 % 0.00 in
11:30 79.9 °F 66.6 °F 29.95 in NNW 2.1 mph 8.1 mph 64 % 0.00 in
11:35 80.5 °F 69.0 °F 29.95 in WSW 0.4 mph 4.6 mph 68 % 0.00 in
11:40 81.0 °F 66.3 °F 29.94 in North 4.6 mph 6.9 mph 61 % 0.00 in
11:45 81.3 °F 66.6 °F 29.94 in NNE 1.8 mph 5.8 mph 61 % 0.00 in
11:50 81.7 °F 66.9 °F 29.94 in West 4.0 mph 5.8 mph 61 % 0.00 in
11:55 82.0 °F 65.3 °F 29.94 in NW 4.8 mph 10.4 mph 57 % 0.00 in
12:00 82.3 °F 66.5 °F 29.94 in NW 5.6 mph 8.1 mph 59 % 0.00 in
12:05 82.6 °F 66.3 °F 29.94 in WNW 5.4 mph 6.9 mph 58 % 0.00 in
12:10 82.7 °F 67.4 °F 29.94 in West 5.0 mph 9.0 mph 60 % 0.00 in
12:16 82.7 °F 65.4 °F 29.94 in NW 5.0 mph 12.0 mph 56 % 0.00 in
12:20 82.8 °F 64.5 °F 29.94 in NNW 5.0 mph 8.0 mph 54 % 0.00 in
12:30 83.0 °F 65.7 °F 29.94 in NNW 3.0 mph 8.0 mph 56 % 0.00 in
12:36 83.2 °F 65.3 °F 29.95 in NW 6.0 mph 13.0 mph 55 % 0.00 in
12:41 83.2 °F 66.9 °F 29.94 in NNE 3.8 mph 5.8 mph 58 % 0.00 in
12:46 83.2 °F 63.7 °F 29.94 in WSW 3.7 mph 12.7 mph 52 % 0.00 in
12:51 83.1 °F 64.7 °F 29.94 in NE 4.6 mph 8.1 mph 54 % 0.00 in
12:56 83.1 °F 63.7 °F 29.95 in NNW 2.4 mph 11.5 mph 52 % 0.00 in
13:01 83.1 °F 64.2 °F 29.95 in NE 5.2 mph 12.7 mph 53 % 0.00 in
13:06 83.1 °F 65.3 °F 29.95 in NNE 4.8 mph 11.5 mph 55 % 0.00 in
13:11 83.4 °F 65.5 °F 29.95 in West 2.7 mph 8.0 mph 55 % 0.00 in
13:16 83.5 °F 65.1 °F 29.95 in NNW 4.7 mph 8.1 mph 54 % 0.00 in
13:21 83.6 °F 64.7 °F 29.95 in West 2.1 mph 6.9 mph 53 % 0.00 in
13:26 83.8 °F 63.7 °F 29.95 in NNW 3.7 mph 6.9 mph 51 % 0.00 in
13:31 83.8 °F 64.3 °F 29.95 in NNE 5.2 mph 9.2 mph 52 % 0.00 in
13:36 83.8 °F 62.6 °F 29.95 in North 5.7 mph 12.7 mph 49 % 0.00 in
13:42 83.9 °F 62.7 °F 29.95 in NW 5.7 mph 11.5 mph 49 % 0.00 in
13:47 83.9 °F 62.1 °F 29.95 in NNW 6.4 mph 11.5 mph 48 % 0.00 in
13:52 84.0 °F 62.2 °F 29.96 in WNW 6.1 mph 11.5 mph 48 % 0.00 in
13:57 84.0 °F 62.8 °F 29.95 in WNW 5.2 mph 9.2 mph 49 % 0.00 in
14:02 83.8 °F 64.3 °F 29.95 in NNW 5.4 mph 8.1 mph 52 % 0.00 in
14:07 83.7 °F 62.5 °F 29.95 in WNW 4.1 mph 12.7 mph 49 % 0.00 in
14:12 83.6 °F 60.6 °F 29.96 in WNW 5.0 mph 6.9 mph 46 % 0.00 in
14:17 83.5 °F 64.0 °F 29.96 in North 5.0 mph 8.1 mph 52 % 0.00 in
14:22 83.5 °F 63.5 °F 29.96 in NW 1.3 mph 8.1 mph 51 % 0.00 in
14:27 83.6 °F 63.0 °F 29.96 in West 2.1 mph 5.8 mph 50 % 0.00 in
14:33 83.7 °F 63.1 °F 29.96 in NNE 4.8 mph 8.1 mph 50 % 0.00 in
14:38 83.5 °F 62.9 °F 29.96 in NNW 2.5 mph 10.4 mph 50 % 0.00 in
14:43 83.4 °F 62.2 °F 29.96 in WNW 4.2 mph 8.1 mph 49 % 0.00 in
14:48 83.5 °F 61.1 °F 29.96 in NNE 4.4 mph 15.0 mph 47 % 0.00 in
14:53 83.7 °F 61.9 °F 29.96 in WSW 2.8 mph 4.6 mph 48 % 0.00 in
14:58 83.8 °F 63.2 °F 29.96 in WSW 3.2 mph 8.1 mph 50 % 0.00 in
15:03 83.8 °F 62.0 °F 29.96 in North 3.1 mph 4.6 mph 48 % 0.00 in
15:08 83.9 °F 62.1 °F 29.96 in NNE 4.0 mph 8.1 mph 48 % 0.00 in
15:13 83.7 °F 61.3 °F 29.96 in NW 4.7 mph 10.4 mph 47 % 0.00 in
15:18 83.6 °F 62.4 °F 29.96 in West 5.7 mph 13.0 mph 49 % 0.00 in
15:24 83.5 °F 60.5 °F 29.97 in NW 4.0 mph 7.0 mph 46 % 0.00 in
15:29 83.4 °F 61.7 °F 29.96 in North 3.6 mph 10.4 mph 48 % 0.00 in
15:34 83.5 °F 61.7 °F 29.96 in North 5.3 mph 12.7 mph 48 % 0.00 in
15:39 83.4 °F 61.1 °F 29.96 in NNE 3.7 mph 9.2 mph 47 % 0.00 in
15:44 83.4 °F 61.7 °F 29.96 in WNW 3.3 mph 9.2 mph 48 % 0.00 in
15:49 83.3 °F 60.4 °F 29.96 in WNW 5.6 mph 10.4 mph 46 % 0.00 in
15:54 83.2 °F 60.3 °F 29.97 in WNW 6.4 mph 11.5 mph 46 % 0.00 in
15:59 82.9 °F 60.6 °F 29.96 in North 4.6 mph 6.9 mph 47 % 0.00 in
16:04 82.8 °F 61.7 °F 29.97 in WSW 3.8 mph 8.1 mph 49 % 0.00 in
16:09 82.7 °F 61.0 °F 29.97 in West 1.8 mph 12.7 mph 48 % 0.00 in
16:15 82.6 °F 62.1 °F 29.97 in NNW 0.8 mph 3.5 mph 50 % 0.00 in
16:20 82.3 °F 61.8 °F 29.97 in North 3.8 mph 6.9 mph 50 % 0.00 in
16:25 82.1 °F 61.6 °F 29.97 in NW 3.7 mph 10.4 mph 50 % 0.00 in
16:30 82.1 °F 61.6 °F 29.97 in NE 2.4 mph 5.8 mph 50 % 0.00 in
16:35 82.1 °F 62.7 °F 29.97 in NNE 2.0 mph 7.0 mph 52 % 0.00 in
16:45 81.9 °F 60.9 °F 29.98 in NNW 5.5 mph 10.4 mph 49 % 0.00 in
16:50 81.7 °F 60.7 °F 29.98 in NNE 5.2 mph 9.2 mph 49 % 0.00 in
16:55 81.5 °F 60.5 °F 29.98 in WNW 4.3 mph 9.2 mph 49 % 0.00 in
17:00 81.0 °F 61.2 °F 29.98 in NNE 2.3 mph 4.6 mph 51 % 0.00 in
17:05 80.7 °F 60.9 °F 29.99 in WNW 4.1 mph 6.9 mph 51 % 0.00 in
17:10 80.7 °F 61.4 °F 29.99 in NNE 0.4 mph 8.1 mph 52 % 0.00 in
17:16 80.7 °F 60.3 °F 29.99 in WNW 2.0 mph 9.0 mph 50 % 0.00 in
17:21 80.7 °F 60.9 °F 29.99 in WNW 3.0 mph 9.0 mph 51 % 0.00 in
17:26 80.4 °F 58.9 °F 29.99 in NW 6.0 mph 13.0 mph 48 % 0.00 in
17:31 80.2 °F 59.9 °F 29.99 in NW 2.0 mph 7.0 mph 50 % 0.00 in
17:36 80.1 °F 59.2 °F 29.99 in NW 5.0 mph 8.0 mph 49 % 0.00 in
17:41 79.8 °F 60.1 °F 30.00 in NNW 5.0 mph 9.0 mph 51 % 0.00 in
17:46 79.5 °F 58.7 °F 30.00 in West 3.9 mph 11.5 mph 49 % 0.00 in
17:51 79.3 °F 59.0 °F 30.00 in NW 5.0 mph 12.0 mph 50 % 0.00 in
17:56 79.0 °F 58.8 °F 30.00 in WNW 3.0 mph 12.0 mph 50 % 0.00 in
18:01 78.7 °F 58.5 °F 30.01 in NW 6.3 mph 11.5 mph 50 % 0.00 in
18:06 78.1 °F 58.5 °F 30.01 in NW 6.7 mph 11.5 mph 51 % 0.00 in
18:11 77.8 °F 59.3 °F 30.01 in NW 3.6 mph 9.2 mph 53 % 0.00 in
18:16 77.5 °F 58.5 °F 30.01 in WNW 1.8 mph 5.0 mph 52 % 0.00 in
18:21 77.3 °F 58.8 °F 30.01 in NW 7.0 mph 14.0 mph 53 % 0.00 in
18:26 76.9 °F 57.4 °F 30.01 in WSW 3.5 mph 11.5 mph 51 % 0.00 in
18:31 76.6 °F 58.2 °F 30.02 in West 3.1 mph 12.7 mph 53 % 0.00 in
18:36 76.4 °F 58.0 °F 30.02 in WNW 1.6 mph 8.1 mph 53 % 0.00 in
18:41 76.0 °F 57.6 °F 30.02 in WNW 2.7 mph 10.4 mph 53 % 0.00 in
18:47 75.8 °F 58.5 °F 30.02 in North 3.0 mph 6.9 mph 55 % 0.00 in
18:52 75.5 °F 57.2 °F 30.03 in NW 1.8 mph 6.0 mph 53 % 0.00 in
18:57 75.3 °F 58.5 °F 30.03 in NE 3.3 mph 11.5 mph 56 % 0.00 in
19:02 75.0 °F 57.7 °F 30.03 in WSW 2.6 mph 11.5 mph 55 % 0.00 in
19:07 74.8 °F 56.5 °F 30.03 in NE 4.1 mph 10.4 mph 53 % 0.00 in
19:12 74.6 °F 57.9 °F 30.03 in NW 5.9 mph 9.2 mph 56 % 0.00 in
19:17 74.4 °F 57.7 °F 30.04 in West 3.6 mph 9.2 mph 56 % 0.00 in
19:22 74.3 °F 56.6 °F 30.04 in WNW 3.7 mph 5.0 mph 54 % 0.00 in
19:27 74.2 °F 57.0 °F 30.04 in WNW 5.4 mph 9.2 mph 55 % 0.00 in
19:32 73.9 °F 56.7 °F 30.05 in WNW 3.5 mph 9.2 mph 55 % 0.00 in
19:38 73.8 °F 57.1 °F 30.05 in NNW 2.4 mph 4.6 mph 56 % 0.00 in
19:43 73.7 °F 56.5 °F 30.05 in NW 3.9 mph 8.1 mph 55 % 0.00 in
19:48 73.6 °F 56.4 °F 30.06 in WNW 2.9 mph 6.9 mph 55 % 0.00 in
19:53 73.4 °F 56.7 °F 30.06 in West 2.2 mph 8.0 mph 56 % 0.00 in
19:58 73.2 °F 56.6 °F 30.07 in NW 5.0 mph 10.4 mph 56 % 0.00 in
20:03 73.1 °F 56.5 °F 30.07 in NNW 2.8 mph 5.8 mph 56 % 0.00 in
20:08 73.1 °F 56.0 °F 30.07 in WNW 3.9 mph 11.5 mph 55 % 0.00 in
20:13 73.0 °F 55.9 °F 30.08 in NW 3.3 mph 10.4 mph 55 % 0.00 in
20:18 72.8 °F 56.7 °F 30.08 in NE 4.4 mph 12.7 mph 57 % 0.00 in
20:23 72.6 °F 57.4 °F 30.08 in NE 9.0 mph 11.5 mph 59 % 0.00 in
20:29 72.3 °F 55.7 °F 30.09 in NNE 9.6 mph 11.5 mph 56 % 0.00 in
20:34 72.1 °F 55.5 °F 30.10 in NNE 7.9 mph 14.0 mph 56 % 0.00 in
20:39 71.9 °F 54.3 °F 30.10 in NNE 5.4 mph 10.4 mph 54 % 0.00 in
20:44 71.7 °F 54.7 °F 30.10 in NNE 4.3 mph 7.0 mph 55 % 0.00 in
20:49 71.5 °F 55.0 °F 30.10 in NNE 4.5 mph 11.5 mph 56 % 0.00 in
20:54 71.3 °F 55.3 °F 30.10 in North 3.8 mph 11.5 mph 57 % 0.00 in
20:59 71.1 °F 55.1 °F 30.11 in NNE 7.8 mph 11.5 mph 57 % 0.00 in
21:04 71.0 °F 54.5 °F 30.11 in North 3.6 mph 10.4 mph 56 % 0.00 in
21:09 70.8 °F 54.8 °F 30.12 in North 5.3 mph 11.5 mph 57 % 0.00 in
21:14 70.6 °F 54.1 °F 30.12 in NNE 7.3 mph 11.5 mph 56 % 0.00 in
21:20 70.5 °F 54.0 °F 30.12 in North 7.1 mph 11.5 mph 56 % 0.00 in
21:25 70.3 °F 53.9 °F 30.12 in NNE 5.3 mph 10.4 mph 56 % 0.00 in
21:28 70.2 °F 53.8 °F 30.12 in NNW 6.8 mph 9.2 mph 56 % 0.00 in
21:33 70.1 °F 54.2 °F 30.13 in North 8.8 mph 12.7 mph 57 % 0.00 in
21:38 69.9 °F 53.5 °F 30.13 in NNE 3.9 mph 10.4 mph 56 % 0.00 in
21:44 69.8 °F 53.9 °F 30.13 in ENE 5.8 mph 10.4 mph 57 % 0.00 in
21:54 69.5 °F 54.1 °F 30.14 in NNE 5.3 mph 8.1 mph 58 % 0.00 in
21:59 69.4 °F 54.0 °F 30.14 in NNE 5.2 mph 8.1 mph 58 % 0.00 in
22:04 69.4 °F 54.0 °F 30.14 in NNW 4.5 mph 9.2 mph 58 % 0.00 in
22:09 69.3 °F 54.4 °F 30.14 in NNE 2.7 mph 5.8 mph 59 % 0.00 in
22:14 69.2 °F 55.2 °F 30.14 in North 3.8 mph 6.9 mph 61 % 0.00 in
22:19 69.1 °F 54.6 °F 30.15 in NNE 1.2 mph 8.1 mph 60 % 0.00 in
22:24 69.0 °F 55.0 °F 30.15 in North 3.7 mph 5.8 mph 61 % 0.00 in
22:29 68.9 °F 54.4 °F 30.15 in NE 3.6 mph 6.0 mph 60 % 0.00 in
22:34 68.7 °F 54.3 °F 30.16 in NNE 3.0 mph 5.8 mph 60 % 0.00 in
22:39 68.7 °F 55.2 °F 30.16 in NNE 2.8 mph 2.8 mph 62 % 0.00 in
22:45 68.5 °F 55.0 °F 30.16 in NNE 2.2 mph 3.5 mph 62 % 0.00 in
22:50 68.5 °F 54.5 °F 30.16 in NNE 0.9 mph 2.3 mph 61 % 0.00 in
22:55 68.4 °F 54.4 °F 30.17 in North 3.8 mph 5.8 mph 61 % 0.00 in
23:00 68.2 °F 54.2 °F 30.17 in North 2.2 mph 4.0 mph 61 % 0.00 in
23:05 68.1 °F 54.1 °F 30.17 in NNW 1.8 mph 4.0 mph 61 % 0.00 in
23:10 68.0 °F 54.0 °F 30.17 in NNW 1.8 mph 4.6 mph 61 % 0.00 in
23:15 67.9 °F 54.0 °F 30.17 in North 3.4 mph 5.8 mph 61 % 0.00 in
23:20 67.8 °F 54.3 °F 30.17 in NE 1.5 mph 3.5 mph 62 % 0.00 in
23:25 67.7 °F 54.2 °F 30.17 in NNW 1.1 mph 3.5 mph 62 % 0.00 in
23:30 67.6 °F 53.7 °F 30.18 in North 0.2 mph 3.5 mph 61 % 0.00 in
23:36 67.5 °F 54.5 °F 30.17 in Calm   2.0 mph 63 % 0.00 in
23:41 67.4 °F 54.4 °F 30.17 in NNE 2.0 mph 3.0 mph 63 % 0.00 in
23:46 67.3 °F 54.3 °F 30.18 in North 1.0 mph 4.0 mph 63 % 0.00 in
23:51 67.2 °F 53.7 °F 30.18 in NW 2.0 mph 5.0 mph 62 % 0.00 in
23:56 67.1 °F 53.2 °F 30.18 in NNW 1.0 mph 6.0 mph 61 % 0.00 in
Crab Meadow Weather
Compliments of Weather Underground - 3 mb

Script developed by  Jim McMurry - jmcmurry@mwt.net Adapted for the template by  Wim van der Kuil - Leuven-Template.eu

Weather Terms: Winter Storms - These are weather hazards associated with freezing or frozen precipitation (freezing rain, sleet, snow) or combined effects of winter precipitation and strong winds.